createdAt,value
2022-10-22T00:00:02.472Z,2.88
2022-10-22T00:02:29.278Z,2.13
2022-10-22T00:04:57.047Z,2.40
2022-10-22T00:07:24.375Z,0.52
2022-10-22T00:09:51.366Z,1.00
2022-10-22T00:12:18.702Z,0.43
2022-10-22T00:14:45.913Z,1.27
2022-10-22T00:17:13.034Z,3.25
2022-10-22T00:19:40.493Z,0.93
2022-10-22T00:22:08.534Z,1.55
2022-10-22T00:24:37.894Z,1.67
2022-10-22T00:27:06.505Z,2.47
2022-10-22T00:29:33.708Z,1.50
2022-10-22T00:32:00.657Z,1.58
2022-10-22T00:34:27.649Z,0.55
2022-10-22T00:36:55.030Z,0.40
2022-10-22T00:39:24.143Z,2.20
2022-10-22T00:41:54.059Z,0.55
2022-10-22T00:45:09.501Z,3.33
2022-10-22T00:48:11.020Z,0.40
2022-10-22T00:53:32.000Z,2.42
2022-10-22T00:55:59.025Z,0.30
2022-10-22T00:58:29.911Z,1.55
2022-10-22T01:00:57.672Z,2.38
2022-10-22T01:03:24.684Z,2.22
2022-10-22T01:06:01.096Z,0.55
2022-10-22T01:09:05.921Z,0.73
2022-10-22T01:11:54.448Z,1.52
2022-10-22T01:15:04.361Z,0.75
2022-10-22T01:18:47.359Z,1.05
2022-10-22T01:22:06.847Z,2.25
2022-10-22T01:29:02.298Z,3.22
2022-10-22T01:31:38.333Z,2.55
2022-10-22T01:34:07.706Z,1.55
2022-10-22T01:36:37.628Z,0.95
2022-10-22T01:39:07.069Z,2.80
2022-10-22T01:41:35.578Z,1.42
2022-10-22T01:44:02.384Z,1.05
2022-10-22T01:46:29.721Z,1.10
2022-10-22T01:49:17.111Z,2.03
2022-10-22T01:51:58.402Z,3.65
2022-10-22T01:57:31.557Z,3.47
2022-10-22T02:00:10.074Z,0.95
2022-10-22T02:03:18.678Z,0.70
2022-10-22T02:06:04.225Z,1.05
2022-10-22T02:08:33.807Z,4.40
2022-10-22T02:11:01.923Z,0.63
2022-10-22T02:13:36.317Z,1.02
2022-10-22T02:16:07.409Z,0.77
2022-10-22T02:18:39.461Z,0.80
2022-10-22T02:23:35.452Z,0.30
2022-10-22T02:26:41.519Z,0.77
2022-10-22T02:29:21.950Z,0.45
2022-10-22T02:31:50.994Z,1.10
2022-10-22T02:34:23.511Z,0.75
2022-10-22T02:36:51.520Z,0.35
2022-10-22T02:39:20.127Z,1.70
2022-10-22T02:41:47.338Z,1.05
2022-10-22T02:44:14.318Z,1.35
2022-10-22T02:46:43.507Z,0.38
2022-10-22T02:49:10.229Z,0.88
2022-10-22T02:51:36.987Z,1.48
2022-10-22T02:54:03.787Z,0.50
2022-10-22T02:56:30.567Z,0.60
2022-10-22T02:58:57.473Z,0.28
2022-10-22T03:01:24.423Z,1.27
2022-10-22T03:03:51.269Z,0.85
2022-10-22T03:06:18.552Z,2.05
2022-10-22T03:08:45.674Z,1.08
2022-10-22T03:11:12.482Z,0.50
2022-10-22T03:13:39.254Z,1.17
2022-10-22T03:16:06.746Z,0.98
2022-10-22T03:18:33.486Z,1.08
2022-10-22T03:21:35.479Z,2.00
2022-10-22T03:24:12.382Z,0.55
2022-10-22T03:26:42.104Z,2.22
2022-10-22T03:29:11.764Z,0.57
2022-10-22T03:31:38.549Z,3.95
2022-10-22T03:34:05.290Z,5.45
2022-10-22T03:36:33.310Z,1.58
2022-10-22T03:39:01.950Z,1.40
2022-10-22T03:41:29.337Z,1.38
2022-10-22T03:43:57.428Z,1.23
2022-10-22T03:46:24.330Z,0.90
2022-10-22T03:48:51.108Z,1.95
2022-10-22T03:51:17.873Z,1.60
2022-10-22T03:53:44.603Z,0.40
2022-10-22T03:56:12.852Z,1.95
2022-10-22T03:58:41.340Z,0.88
2022-10-22T04:01:10.674Z,0.75
2022-10-22T04:03:37.879Z,0.75
2022-10-22T04:06:11.357Z,2.50
2022-10-22T04:08:43.701Z,3.63
2022-10-22T04:11:12.101Z,0.70
2022-10-22T04:13:39.423Z,1.42
2022-10-22T04:16:15.251Z,0.75
2022-10-22T04:18:43.289Z,2.20
2022-10-22T04:21:12.867Z,1.27
2022-10-22T04:23:39.896Z,1.00
2022-10-22T04:26:08.032Z,2.63
2022-10-22T04:28:35.445Z,2.35
2022-10-22T04:31:12.976Z,1.00
2022-10-22T04:33:40.480Z,2.92
2022-10-22T04:36:17.699Z,6.75
2022-10-22T04:38:47.517Z,2.03
2022-10-22T04:41:19.489Z,0.88
2022-10-22T04:43:47.764Z,2.13
2022-10-22T04:46:16.842Z,3.47
2022-10-22T04:48:45.205Z,4.82
2022-10-22T04:51:18.184Z,3.65
2022-10-22T04:53:45.378Z,0.95
2022-10-22T04:56:20.495Z,6.93
2022-10-22T04:58:49.573Z,2.45
2022-10-22T05:01:32.365Z,1.15
2022-10-22T05:04:02.671Z,1.95
2022-10-22T05:06:31.550Z,8.02
2022-10-22T05:09:01.669Z,4.40
2022-10-22T05:11:33.772Z,2.50
2022-10-22T05:14:04.038Z,3.38
2022-10-22T05:16:31.944Z,48.13
2022-10-22T05:19:01.333Z,67.95
2022-10-22T05:21:28.894Z,30.00
2022-10-22T05:23:57.255Z,49.15
2022-10-22T05:26:25.137Z,33.55
2022-10-22T05:28:52.376Z,8.43
2022-10-22T05:31:20.167Z,4.40
2022-10-22T05:33:47.239Z,15.63
2022-10-22T05:36:18.894Z,6.55
2022-10-22T05:38:46.482Z,3.78
2022-10-22T05:41:17.286Z,2.88
2022-10-22T05:43:44.372Z,1.73
2022-10-22T05:46:19.877Z,1.23
2022-10-22T05:49:00.231Z,1.00
2022-10-22T05:51:30.738Z,1.48
2022-10-22T05:54:03.624Z,2.25
2022-10-22T05:56:32.014Z,1.75
2022-10-22T05:58:59.778Z,0.80
2022-10-22T06:01:32.740Z,2.28
2022-10-22T06:04:02.347Z,1.30
2022-10-22T06:06:33.981Z,1.10
2022-10-22T06:09:14.196Z,3.22
2022-10-22T06:11:41.198Z,1.80
2022-10-22T06:14:08.851Z,1.33
2022-10-22T06:16:35.671Z,2.10
2022-10-22T06:19:03.159Z,1.10
2022-10-22T06:21:31.284Z,3.53
2022-10-22T06:23:59.811Z,1.10
2022-10-22T06:26:26.807Z,2.92
2022-10-22T06:28:55.680Z,4.93
2022-10-22T06:31:23.990Z,1.85
2022-10-22T06:33:50.720Z,0.85
2022-10-22T06:36:22.502Z,1.30
2022-10-22T06:38:53.282Z,3.15
2022-10-22T06:41:22.182Z,2.22
2022-10-22T06:43:53.988Z,1.20
2022-10-22T06:46:22.594Z,3.80
2022-10-22T06:48:56.311Z,1.40
2022-10-22T06:51:23.773Z,0.60
2022-10-22T06:53:50.733Z,0.93
2022-10-22T06:56:20.626Z,2.60
2022-10-22T06:58:52.475Z,1.33
2022-10-22T07:01:23.118Z,1.90
2022-10-22T07:03:53.634Z,2.47
2022-10-22T07:06:22.428Z,1.98
2022-10-22T07:08:49.795Z,2.95
2022-10-22T07:11:19.043Z,2.55
2022-10-22T07:13:46.363Z,0.50
2022-10-22T07:16:14.234Z,1.25
2022-10-22T07:18:42.280Z,0.60
2022-10-22T07:21:11.758Z,2.30
2022-10-22T07:23:39.095Z,2.78
2022-10-22T07:26:07.484Z,0.82
2022-10-22T07:28:39.753Z,1.95
2022-10-22T07:31:11.740Z,3.63
2022-10-22T07:33:38.968Z,1.35
2022-10-22T07:36:09.292Z,3.20
2022-10-22T07:38:36.752Z,0.90
2022-10-22T07:41:04.551Z,2.80
2022-10-22T07:43:31.311Z,1.33
2022-10-22T07:45:59.599Z,3.88
2022-10-22T07:48:26.446Z,1.08
2022-10-22T07:50:53.270Z,2.35
2022-10-22T07:53:21.237Z,3.65
2022-10-22T07:55:50.022Z,2.13
2022-10-22T07:58:21.073Z,1.00
2022-10-22T08:03:17.907Z,1.17
2022-10-22T08:05:44.772Z,3.15
2022-10-22T08:08:14.068Z,1.40
2022-10-22T08:10:41.159Z,3.00
2022-10-22T08:13:08.168Z,3.58
2022-10-22T08:15:35.564Z,1.98
2022-10-22T08:18:02.525Z,2.65
2022-10-22T08:20:29.280Z,5.32
2022-10-22T08:22:56.052Z,3.63
2022-10-22T08:25:22.875Z,6.85
2022-10-22T08:27:49.799Z,6.68
2022-10-22T08:30:17.211Z,2.60
2022-10-22T08:32:44.029Z,4.63
2022-10-22T08:35:14.142Z,3.22
2022-10-22T08:37:43.848Z,1.73
2022-10-22T08:40:21.945Z,4.28
2022-10-22T08:43:16.186Z,6.28
2022-10-22T08:45:57.208Z,5.38
2022-10-22T08:48:49.351Z,2.72
2022-10-22T08:51:20.538Z,4.00
2022-10-22T08:54:27.436Z,3.35
2022-10-22T08:57:45.693Z,3.22
2022-10-22T09:00:58.208Z,13.20
2022-10-22T09:03:43.811Z,6.82
2022-10-22T09:06:30.262Z,2.40
2022-10-22T09:08:59.792Z,3.38
2022-10-22T09:11:37.274Z,4.65
2022-10-22T09:14:05.258Z,4.60
2022-10-22T09:17:08.936Z,2.42
2022-10-22T09:20:03.833Z,4.40
2022-10-22T09:22:53.514Z,3.25
2022-10-22T09:25:31.436Z,3.83
2022-10-22T09:27:58.617Z,1.48
2022-10-22T09:30:30.523Z,4.15
2022-10-22T09:33:06.406Z,3.85
2022-10-22T09:35:52.528Z,2.97
2022-10-22T09:38:31.374Z,3.95
2022-10-22T09:41:01.268Z,7.45
2022-10-22T09:43:27.998Z,5.85
2022-10-22T09:46:00.822Z,12.60
2022-10-22T09:48:34.603Z,6.63
2022-10-22T09:51:23.675Z,4.57
2022-10-22T09:54:01.613Z,3.80
2022-10-22T09:56:36.452Z,4.63
2022-10-22T09:59:03.859Z,4.78
2022-10-22T10:01:38.507Z,3.22
2022-10-22T10:04:15.189Z,3.88
2022-10-22T10:06:44.429Z,4.97
2022-10-22T10:09:21.721Z,5.20
2022-10-22T10:12:31.970Z,5.20
2022-10-22T10:15:16.482Z,4.50
2022-10-22T10:18:21.970Z,4.25
2022-10-22T10:20:57.316Z,4.45
2022-10-22T10:23:54.449Z,4.22
2022-10-22T10:27:00.166Z,6.18
2022-10-22T10:30:01.697Z,3.25
2022-10-22T10:32:57.265Z,6.22
2022-10-22T10:35:41.162Z,2.17
2022-10-22T10:38:24.693Z,2.55
2022-10-22T10:41:20.772Z,6.80
2022-10-22T10:44:24.443Z,3.75
2022-10-22T10:47:20.651Z,1.85
2022-10-22T10:49:49.954Z,4.57
2022-10-22T10:52:45.776Z,2.78
2022-10-22T10:55:31.529Z,4.22
2022-10-22T10:58:35.408Z,5.53
2022-10-22T11:01:30.207Z,3.08
2022-10-22T11:04:25.699Z,4.20
2022-10-22T11:07:10.670Z,5.75
2022-10-22T11:10:11.703Z,4.75
2022-10-22T11:12:45.892Z,3.90
2022-10-22T11:15:35.046Z,3.65
2022-10-22T11:18:30.432Z,4.28
2022-10-22T11:21:28.346Z,3.28
2022-10-22T11:24:07.841Z,6.80
2022-10-22T11:26:52.589Z,6.95
2022-10-22T11:29:35.343Z,5.63
2022-10-22T11:32:03.038Z,2.50
2022-10-22T11:35:15.995Z,3.35
2022-10-22T11:37:45.991Z,6.13
2022-10-22T11:40:21.823Z,3.15
2022-10-22T11:42:54.182Z,3.75
2022-10-22T11:45:23.885Z,4.38
2022-10-22T11:48:08.152Z,5.53
2022-10-22T11:50:50.667Z,3.78
2022-10-22T11:53:41.680Z,4.07
2022-10-22T11:56:09.904Z,4.90
2022-10-22T11:58:44.916Z,2.40
2022-10-22T12:01:11.583Z,5.07
2022-10-22T12:03:44.887Z,6.57
2022-10-22T12:06:19.559Z,5.50
2022-10-22T12:08:49.139Z,2.40
2022-10-22T12:11:24.378Z,4.43
2022-10-22T12:14:02.923Z,4.00
2022-10-22T12:16:54.778Z,2.53
2022-10-22T12:19:22.311Z,3.42
2022-10-22T12:22:13.509Z,3.78
2022-10-22T12:24:50.904Z,5.07
2022-10-22T12:27:32.976Z,4.75
2022-10-22T12:30:02.204Z,7.10
2022-10-22T12:32:41.342Z,2.20
2022-10-22T12:35:16.817Z,5.03
2022-10-22T12:37:43.799Z,3.08
2022-10-22T12:40:25.646Z,4.70
2022-10-22T12:43:10.962Z,3.50
2022-10-22T12:45:38.574Z,3.58
2022-10-22T12:48:21.657Z,3.60
2022-10-22T12:50:54.907Z,5.70
2022-10-22T12:53:35.188Z,4.90
2022-10-22T12:56:06.368Z,7.22
2022-10-22T12:58:43.435Z,3.83
2022-10-22T13:01:13.502Z,4.25
2022-10-22T13:03:49.730Z,3.90
2022-10-22T13:06:19.580Z,3.22
2022-10-22T13:08:59.312Z,2.83
2022-10-22T13:11:38.685Z,2.90
2022-10-22T13:14:28.910Z,5.93
2022-10-22T13:17:19.697Z,2.97
2022-10-22T13:19:55.296Z,3.03
2022-10-22T13:23:04.153Z,4.13
2022-10-22T13:26:41.228Z,4.53
2022-10-22T13:30:00.204Z,3.95
2022-10-22T13:33:18.785Z,3.63
2022-10-22T13:35:45.620Z,3.80
2022-10-22T13:38:55.435Z,4.05
2022-10-22T13:44:35.671Z,2.30
2022-10-22T13:47:34.652Z,4.18
2022-10-22T13:50:05.181Z,3.90
2022-10-22T13:52:41.594Z,9.48
2022-10-22T13:55:27.113Z,3.13
2022-10-22T13:58:03.894Z,3.60
2022-10-22T14:00:31.168Z,4.63
2022-10-22T14:02:59.823Z,2.17
2022-10-22T14:05:27.252Z,3.58
2022-10-22T14:07:54.070Z,3.97
2022-10-22T14:10:25.175Z,4.22
2022-10-22T14:12:53.723Z,5.78
2022-10-22T14:15:24.374Z,3.50
2022-10-22T14:17:57.711Z,3.17
2022-10-22T14:20:29.822Z,4.32
2022-10-22T14:23:01.455Z,5.50
2022-10-22T14:25:31.308Z,3.95
2022-10-22T14:27:58.045Z,2.28
2022-10-22T14:30:26.563Z,4.90
2022-10-22T14:32:53.412Z,6.38
2022-10-22T14:35:22.572Z,4.05
2022-10-22T14:37:49.854Z,6.25
2022-10-22T14:40:20.199Z,3.70
2022-10-22T14:42:48.897Z,4.57
2022-10-22T14:45:27.186Z,2.22
2022-10-22T14:47:57.362Z,5.20
2022-10-22T14:50:25.098Z,4.60
2022-10-22T14:52:52.059Z,3.00
2022-10-22T14:55:20.006Z,3.08
2022-10-22T14:57:46.812Z,3.00
2022-10-22T15:00:18.331Z,2.60
2022-10-22T15:02:46.507Z,2.88
2022-10-22T15:05:14.534Z,3.75
2022-10-22T15:07:42.072Z,5.57
2022-10-22T15:10:09.653Z,3.75
2022-10-22T15:12:36.564Z,5.50
2022-10-22T15:15:04.737Z,7.28
2022-10-22T15:17:31.662Z,4.47
2022-10-22T15:20:01.035Z,3.20
2022-10-22T15:22:28.554Z,1.75
2022-10-22T15:24:55.300Z,4.80
2022-10-22T15:27:22.087Z,3.53
2022-10-22T15:29:48.881Z,3.80
2022-10-22T15:32:15.653Z,3.90
2022-10-22T15:34:42.386Z,1.65
2022-10-22T15:37:12.526Z,2.38
2022-10-22T15:39:40.895Z,6.03
2022-10-22T15:42:09.439Z,4.93
2022-10-22T15:44:36.646Z,9.30
2022-10-22T15:47:04.891Z,6.07
2022-10-22T15:49:32.206Z,7.45
2022-10-22T15:51:58.978Z,6.53
2022-10-22T15:54:29.248Z,5.70
2022-10-22T15:56:57.855Z,6.47
2022-10-22T15:59:24.876Z,4.85
2022-10-22T16:01:52.463Z,6.55
2022-10-22T16:04:19.590Z,5.65
2022-10-22T16:06:49.368Z,6.53
2022-10-22T16:09:19.921Z,4.32
2022-10-22T16:11:46.806Z,7.88
2022-10-22T16:14:16.504Z,4.63
2022-10-22T16:16:47.229Z,5.07
2022-10-22T16:19:17.051Z,10.80
2022-10-22T16:21:44.804Z,7.72
2022-10-22T16:24:12.777Z,3.17
2022-10-22T16:26:42.856Z,7.88
2022-10-22T16:29:19.386Z,7.40
2022-10-22T16:31:53.687Z,5.35
2022-10-22T16:34:24.659Z,5.55
2022-10-22T16:37:03.702Z,12.43
2022-10-22T16:39:40.793Z,9.27
2022-10-22T16:42:15.069Z,2.70
2022-10-22T16:45:04.603Z,3.08
2022-10-22T16:47:35.713Z,5.95
2022-10-22T16:52:40.696Z,3.22
2022-10-22T16:55:22.993Z,5.20
2022-10-22T16:57:57.518Z,7.82
2022-10-22T17:00:50.937Z,13.57
2022-10-22T17:03:38.040Z,4.80
2022-10-22T17:06:06.615Z,6.40
2022-10-22T17:08:57.419Z,7.00
2022-10-22T17:11:25.023Z,9.77
2022-10-22T17:13:54.472Z,3.28
2022-10-22T17:16:24.105Z,6.55
2022-10-22T17:18:53.125Z,7.07
2022-10-22T17:21:21.091Z,10.10
2022-10-22T17:23:49.162Z,8.15
2022-10-22T17:26:22.639Z,11.07
2022-10-22T17:28:49.710Z,7.57
2022-10-22T17:31:24.025Z,5.18
2022-10-22T17:33:54.059Z,4.30
2022-10-22T17:36:22.458Z,3.65
2022-10-22T17:38:53.723Z,5.38
2022-10-22T17:41:28.155Z,4.68
2022-10-22T17:43:56.822Z,10.50
2022-10-22T17:46:26.726Z,8.80
2022-10-22T17:49:00.000Z,5.72
2022-10-22T17:51:29.432Z,4.15
2022-10-22T17:53:56.767Z,6.40
2022-10-22T17:56:30.126Z,7.40
2022-10-22T17:58:57.251Z,5.43
2022-10-22T18:01:33.874Z,7.30
2022-10-22T18:04:08.267Z,4.90
2022-10-22T18:06:35.577Z,4.10
2022-10-22T18:09:08.491Z,2.67
2022-10-22T18:11:39.342Z,5.95
2022-10-22T18:14:06.106Z,2.75
2022-10-22T18:16:32.872Z,5.15
2022-10-22T18:18:59.906Z,2.42
2022-10-22T18:21:29.478Z,6.40
2022-10-22T18:23:59.356Z,10.00
2022-10-22T18:26:27.099Z,9.07
2022-10-22T18:28:55.343Z,6.35
2022-10-22T18:31:24.953Z,4.57
2022-10-22T18:36:26.675Z,5.00
2022-10-22T18:38:59.630Z,4.20
2022-10-22T18:41:28.436Z,8.32
2022-10-22T18:44:05.075Z,5.80
2022-10-22T18:46:39.485Z,6.15
2022-10-22T18:49:07.252Z,5.32
2022-10-22T18:51:35.261Z,5.38
2022-10-22T18:54:05.771Z,5.38
2022-10-22T18:56:40.558Z,5.35
2022-10-22T18:59:14.130Z,9.02
2022-10-22T19:01:40.868Z,1.70
2022-10-22T19:04:07.608Z,6.32
2022-10-22T19:06:37.060Z,6.18
2022-10-22T19:09:04.980Z,4.97
2022-10-22T19:11:32.598Z,3.17
2022-10-22T19:13:59.386Z,15.02
2022-10-22T19:16:27.115Z,18.88
2022-10-22T19:19:00.552Z,19.10
2022-10-22T19:21:27.613Z,8.38
2022-10-22T19:23:58.972Z,8.70
2022-10-22T19:26:27.595Z,4.50
2022-10-22T19:28:55.843Z,2.70
2022-10-22T19:31:24.960Z,1.98
2022-10-22T19:33:54.495Z,2.17
2022-10-22T19:36:24.329Z,3.25
2022-10-22T19:38:51.232Z,2.75
2022-10-22T19:41:20.787Z,3.92
2022-10-22T19:43:53.202Z,3.33
2022-10-22T19:46:21.648Z,4.78
2022-10-22T19:48:49.682Z,2.67
2022-10-22T19:51:22.803Z,2.45
2022-10-22T19:53:50.403Z,6.25
2022-10-22T19:56:20.376Z,3.20
2022-10-22T19:58:47.676Z,2.95
2022-10-22T20:01:17.453Z,2.78
2022-10-22T20:03:45.268Z,2.78
2022-10-22T20:06:14.909Z,4.55
2022-10-22T20:08:41.730Z,5.38
2022-10-22T20:11:16.632Z,1.25
2022-10-22T20:13:45.416Z,2.67
2022-10-22T20:16:17.645Z,5.05
2022-10-22T20:18:44.519Z,1.65
2022-10-22T20:21:16.927Z,3.28
2022-10-22T20:23:43.775Z,3.08
2022-10-22T20:26:17.337Z,2.95
2022-10-22T20:28:51.585Z,4.25
2022-10-22T20:31:27.826Z,4.90
2022-10-22T20:34:01.851Z,1.30
2022-10-22T20:36:31.581Z,1.50
2022-10-22T20:39:01.382Z,3.75
2022-10-22T20:41:28.480Z,2.58
2022-10-22T20:43:55.294Z,5.03
2022-10-22T20:46:31.646Z,3.80
2022-10-22T20:49:05.044Z,4.15
2022-10-22T20:51:32.357Z,5.60
2022-10-22T20:53:59.302Z,2.05
2022-10-22T20:56:26.944Z,2.38
2022-10-22T20:59:04.000Z,2.42
2022-10-22T21:01:57.229Z,2.47
2022-10-22T21:04:24.180Z,2.97
2022-10-22T21:06:52.119Z,3.85
2022-10-22T21:09:19.623Z,4.78
2022-10-22T21:11:46.925Z,2.92
2022-10-22T21:14:16.701Z,3.85
2022-10-22T21:16:46.260Z,1.05
2022-10-22T21:19:13.135Z,4.28
2022-10-22T21:21:39.877Z,5.28
2022-10-22T21:24:07.025Z,1.55
2022-10-22T21:26:38.274Z,1.35
2022-10-22T21:29:05.203Z,3.53
2022-10-22T21:31:31.938Z,2.17
2022-10-22T21:33:58.672Z,3.58
2022-10-22T21:36:25.517Z,2.85
2022-10-22T21:38:52.986Z,1.13
2022-10-22T21:41:22.991Z,0.82
2022-10-22T21:43:50.655Z,1.13
2022-10-22T21:46:23.504Z,2.00
2022-10-22T21:49:01.949Z,1.88
2022-10-22T21:51:31.757Z,1.27
2022-10-22T21:53:58.631Z,4.35
2022-10-22T21:56:29.522Z,5.85
2022-10-22T21:58:56.257Z,3.28
2022-10-22T22:01:23.919Z,2.38
2022-10-22T22:03:52.370Z,2.80
2022-10-22T22:06:23.371Z,3.13
2022-10-22T22:11:25.374Z,3.30
2022-10-22T22:13:55.511Z,1.73
2022-10-22T22:16:30.403Z,2.78
2022-10-22T22:19:00.229Z,2.70
2022-10-22T22:21:27.498Z,2.53
2022-10-22T22:23:54.355Z,1.80
2022-10-22T22:26:26.775Z,3.17
2022-10-22T22:29:00.422Z,1.58
2022-10-22T22:31:33.282Z,1.70
2022-10-22T22:34:03.170Z,2.92
2022-10-22T22:36:36.169Z,3.30
2022-10-22T22:39:05.465Z,3.83
2022-10-22T22:41:32.442Z,2.33
2022-10-22T22:43:59.172Z,2.95
2022-10-22T22:46:26.192Z,4.05
2022-10-22T22:48:53.015Z,1.65
2022-10-22T22:51:19.820Z,4.28
2022-10-22T22:53:46.763Z,2.25
2022-10-22T22:56:23.207Z,4.50
2022-10-22T22:58:50.346Z,2.10
2022-10-22T23:01:25.149Z,2.13
2022-10-22T23:03:59.950Z,1.58
2022-10-22T23:06:31.716Z,2.00
2022-10-22T23:08:59.239Z,1.75
2022-10-22T23:11:28.014Z,2.53
2022-10-22T23:13:59.855Z,1.83
2022-10-22T23:16:33.622Z,0.63
2022-10-22T23:19:01.383Z,1.80
2022-10-22T23:21:32.593Z,4.63
2022-10-22T23:24:04.139Z,1.95
2022-10-22T23:26:43.943Z,1.90
2022-10-22T23:29:16.676Z,3.00
2022-10-22T23:31:47.864Z,2.55
2022-10-22T23:36:47.787Z,0.90
2022-10-22T23:39:20.945Z,1.58
2022-10-22T23:41:51.156Z,1.70
2022-10-22T23:44:23.314Z,1.13
2022-10-22T23:46:53.354Z,5.80
2022-10-22T23:49:23.397Z,2.97
2022-10-22T23:51:51.300Z,4.17
2022-10-22T23:54:19.724Z,7.78
2022-10-22T23:56:51.233Z,1.52
2022-10-22T23:59:18.829Z,1.63
